createdAt,value
2022-12-15T00:00:54.539Z,8.00
2022-12-15T00:03:40.503Z,8.00
2022-12-15T00:06:26.427Z,7.80
2022-12-15T00:09:14.445Z,7.70
2022-12-15T00:12:01.016Z,7.80
2022-12-15T00:14:46.893Z,7.80
2022-12-15T00:17:32.785Z,7.80
2022-12-15T00:20:18.707Z,7.80
2022-12-15T00:23:04.418Z,7.80
2022-12-15T00:25:50.279Z,7.70
2022-12-15T00:28:36.436Z,7.80
2022-12-15T00:31:22.144Z,7.90
2022-12-15T00:34:09.789Z,7.90
2022-12-15T00:36:55.368Z,8.00
2022-12-15T00:39:22.472Z,8.10
2022-12-15T00:41:50.147Z,8.10
2022-12-15T00:44:20.632Z,8.10
2022-12-15T00:46:57.104Z,8.10
2022-12-15T00:49:43.679Z,8.10
2022-12-15T00:52:29.525Z,8.20
2022-12-15T00:55:15.823Z,8.30
2022-12-15T00:58:01.316Z,8.30
2022-12-15T01:00:46.676Z,8.30
2022-12-15T01:03:36.538Z,8.20
2022-12-15T01:06:26.581Z,8.20
2022-12-15T01:09:12.192Z,8.10
2022-12-15T01:11:58.186Z,8.10
2022-12-15T01:14:43.836Z,8.10
2022-12-15T01:17:29.729Z,8.20
2022-12-15T01:20:15.306Z,8.20
2022-12-15T01:22:42.306Z,8.00
2022-12-15T01:25:09.366Z,7.90
2022-12-15T01:27:42.694Z,7.90
2022-12-15T01:30:10.891Z,8.00
2022-12-15T01:32:42.722Z,8.10
2022-12-15T01:35:12.896Z,8.10
2022-12-15T01:37:43.126Z,8.10
2022-12-15T01:40:30.812Z,8.00
2022-12-15T01:42:57.858Z,8.10
2022-12-15T01:45:27.802Z,8.00
2022-12-15T01:48:06.781Z,8.00
2022-12-15T01:50:36.344Z,8.00
2022-12-15T01:53:03.266Z,8.00
2022-12-15T01:55:30.744Z,8.00
2022-12-15T01:58:00.070Z,8.00
2022-12-15T02:00:27.103Z,8.00
2022-12-15T02:02:54.895Z,8.00
2022-12-15T02:05:22.169Z,8.10
2022-12-15T02:07:49.153Z,8.10
2022-12-15T02:10:19.454Z,8.20
2022-12-15T02:13:04.704Z,8.20
2022-12-15T02:15:37.490Z,8.30
2022-12-15T02:18:07.932Z,8.40
2022-12-15T02:20:53.703Z,8.40
2022-12-15T02:23:38.679Z,8.50
2022-12-15T02:26:11.894Z,8.50
2022-12-15T02:28:54.483Z,8.50
2022-12-15T02:31:49.945Z,8.50
2022-12-15T02:34:26.257Z,8.40
2022-12-15T02:36:56.256Z,8.40
2022-12-15T02:39:23.498Z,8.40
2022-12-15T02:41:52.357Z,8.40
2022-12-15T02:44:21.555Z,8.50
2022-12-15T02:47:07.328Z,8.50
2022-12-15T02:49:47.068Z,8.50
2022-12-15T02:52:17.107Z,8.50
2022-12-15T02:54:48.876Z,8.40
2022-12-15T02:57:20.495Z,8.40
2022-12-15T03:00:04.918Z,8.50
2022-12-15T03:02:32.390Z,8.40
2022-12-15T03:04:59.451Z,8.20
2022-12-15T03:07:31.310Z,8.20
2022-12-15T03:10:03.210Z,8.20
2022-12-15T03:12:33.429Z,8.00
2022-12-15T03:15:00.573Z,7.70
2022-12-15T03:17:28.605Z,7.60
2022-12-15T03:19:56.103Z,7.60
2022-12-15T03:22:23.215Z,7.70
2022-12-15T03:24:50.167Z,7.80
2022-12-15T03:27:18.656Z,7.90
2022-12-15T03:29:45.925Z,8.00
2022-12-15T03:32:12.951Z,8.00
2022-12-15T03:34:39.995Z,8.00
2022-12-15T03:37:07.034Z,8.10
2022-12-15T03:39:34.270Z,8.10
2022-12-15T03:42:52.207Z,8.10
2022-12-15T03:45:23.157Z,8.10
2022-12-15T03:47:50.691Z,8.10
2022-12-15T03:50:18.910Z,8.20
2022-12-15T03:52:46.050Z,8.30
2022-12-15T03:55:13.484Z,8.30
2022-12-15T03:57:40.997Z,8.30
2022-12-15T04:00:10.176Z,8.30
2022-12-15T04:02:37.323Z,8.30
2022-12-15T04:05:04.598Z,8.30
2022-12-15T04:07:35.819Z,8.30
2022-12-15T04:10:02.946Z,8.30
2022-12-15T04:12:30.005Z,8.40
2022-12-15T04:14:56.835Z,8.40
2022-12-15T04:17:24.514Z,8.40
2022-12-15T04:20:10.697Z,8.20
2022-12-15T04:22:40.801Z,7.90
2022-12-15T04:25:29.384Z,7.90
2022-12-15T04:28:15.771Z,7.80
2022-12-15T04:31:05.974Z,7.80
2022-12-15T04:33:51.631Z,7.80
2022-12-15T04:36:37.642Z,7.80
2022-12-15T04:39:23.424Z,7.80
2022-12-15T04:42:10.066Z,7.90
2022-12-15T04:44:55.536Z,8.00
2022-12-15T04:47:41.104Z,8.10
2022-12-15T04:50:26.649Z,8.10
2022-12-15T04:53:12.471Z,8.20
2022-12-15T04:55:58.400Z,8.30
2022-12-15T04:58:44.176Z,8.30
2022-12-15T05:01:30.028Z,8.20
2022-12-15T05:04:15.903Z,8.10
2022-12-15T05:07:01.594Z,8.10
2022-12-15T05:09:47.270Z,8.10
2022-12-15T05:12:32.967Z,8.10
2022-12-15T05:15:19.871Z,8.10
2022-12-15T05:18:07.262Z,8.10
2022-12-15T05:20:55.411Z,8.20
2022-12-15T05:23:41.043Z,8.20
2022-12-15T05:26:26.443Z,8.40
2022-12-15T05:29:12.297Z,8.40
2022-12-15T05:32:08.894Z,8.40
2022-12-15T05:34:36.236Z,8.20
2022-12-15T05:37:13.836Z,8.00
2022-12-15T05:39:40.889Z,7.90
2022-12-15T05:42:10.702Z,7.80
2022-12-15T05:44:37.957Z,7.70
2022-12-15T05:47:05.070Z,7.70
2022-12-15T05:49:32.047Z,7.80
2022-12-15T05:51:59.043Z,7.90
2022-12-15T05:54:28.147Z,7.90
2022-12-15T05:56:55.109Z,7.90
2022-12-15T05:59:22.246Z,8.00
2022-12-15T06:01:49.366Z,8.00
2022-12-15T06:04:17.189Z,8.00
2022-12-15T06:06:44.308Z,7.80
2022-12-15T06:09:11.159Z,7.60
2022-12-15T06:11:38.334Z,7.50
2022-12-15T06:14:05.430Z,7.50
2022-12-15T06:16:32.722Z,7.50
2022-12-15T06:19:00.257Z,7.50
2022-12-15T06:21:33.671Z,7.60
2022-12-15T06:24:00.922Z,7.80
2022-12-15T06:26:30.017Z,7.90
2022-12-15T06:28:57.781Z,8.00
2022-12-15T06:31:28.071Z,8.00
2022-12-15T06:34:01.262Z,8.00
2022-12-15T06:36:29.248Z,8.00
2022-12-15T06:38:58.744Z,7.90
2022-12-15T06:41:30.651Z,7.80
2022-12-15T06:43:57.993Z,7.70
2022-12-15T06:46:25.481Z,7.70
2022-12-15T06:48:53.395Z,7.70
2022-12-15T06:51:20.602Z,7.70
2022-12-15T06:53:54.479Z,7.80
2022-12-15T06:56:28.653Z,7.90
2022-12-15T06:58:59.550Z,8.00
2022-12-15T07:01:26.646Z,8.00
2022-12-15T07:03:55.527Z,7.90
2022-12-15T07:06:22.849Z,7.90
2022-12-15T07:08:53.535Z,8.00
2022-12-15T07:11:21.265Z,8.00
2022-12-15T07:13:51.972Z,8.10
2022-12-15T07:16:19.114Z,8.20
2022-12-15T07:18:46.132Z,8.30
2022-12-15T07:21:13.834Z,8.40
2022-12-15T07:23:54.068Z,8.40
2022-12-15T07:26:22.736Z,8.40
2022-12-15T07:28:49.746Z,8.40
2022-12-15T07:31:17.366Z,8.40
2022-12-15T07:33:44.486Z,8.40
2022-12-15T07:36:12.060Z,8.50
2022-12-15T07:38:41.453Z,8.50
2022-12-15T07:41:08.876Z,8.50
2022-12-15T07:43:37.156Z,8.60
2022-12-15T07:46:04.834Z,8.60
2022-12-15T07:48:38.123Z,8.60
2022-12-15T07:51:11.152Z,8.60
2022-12-15T07:53:40.907Z,8.70
2022-12-15T07:56:09.908Z,8.60
2022-12-15T07:58:37.707Z,8.70
2022-12-15T08:01:07.150Z,8.70
2022-12-15T08:03:35.257Z,8.70
2022-12-15T08:06:07.970Z,8.50
2022-12-15T08:08:37.066Z,8.50
2022-12-15T08:11:05.645Z,8.40
2022-12-15T08:16:21.876Z,8.50
2022-12-15T08:18:49.281Z,8.50
2022-12-15T08:21:17.308Z,8.60
2022-12-15T08:23:44.733Z,8.60
2022-12-15T08:26:12.416Z,8.80
2022-12-15T08:28:39.914Z,8.80
2022-12-15T08:31:07.538Z,8.90
2022-12-15T08:33:35.972Z,8.80
2022-12-15T08:36:03.879Z,8.70
2022-12-15T08:38:32.164Z,8.60
2022-12-15T08:40:59.133Z,8.60
2022-12-15T08:43:26.071Z,8.50
2022-12-15T08:45:53.658Z,8.30
2022-12-15T08:48:20.606Z,8.20
2022-12-15T08:50:47.634Z,8.20
2022-12-15T08:53:30.788Z,8.30
2022-12-15T08:56:06.489Z,8.40
2022-12-15T08:58:33.562Z,8.50
2022-12-15T09:01:03.369Z,8.60
2022-12-15T09:03:30.817Z,8.70
2022-12-15T09:06:05.516Z,8.70
2022-12-15T09:08:32.869Z,8.80
2022-12-15T09:11:00.115Z,8.90
2022-12-15T09:13:27.313Z,8.90
2022-12-15T09:16:09.473Z,9.00
2022-12-15T09:18:39.858Z,9.10
2022-12-15T09:21:07.568Z,9.00
2022-12-15T09:23:35.663Z,8.90
2022-12-15T09:26:07.808Z,8.90
2022-12-15T09:28:35.951Z,9.00
2022-12-15T09:31:04.329Z,9.00
2022-12-15T09:33:33.373Z,9.10
2022-12-15T09:36:01.162Z,9.00
2022-12-15T09:38:43.914Z,9.10
2022-12-15T09:41:13.593Z,9.20
2022-12-15T09:43:50.172Z,9.40
2022-12-15T09:46:21.734Z,9.50
2022-12-15T09:48:49.195Z,9.50
2022-12-15T09:51:16.810Z,9.50
2022-12-15T09:53:59.525Z,9.60
2022-12-15T09:56:31.100Z,9.60
2022-12-15T09:59:06.022Z,9.70
2022-12-15T10:01:43.425Z,9.70
2022-12-15T10:04:20.257Z,9.70
2022-12-15T10:06:50.662Z,9.70
2022-12-15T10:09:21.631Z,9.80
2022-12-15T10:11:59.206Z,9.70
2022-12-15T10:14:45.616Z,9.70
2022-12-15T10:17:19.865Z,9.80
2022-12-15T10:20:00.900Z,9.60
2022-12-15T10:22:29.685Z,9.50
2022-12-15T10:25:14.245Z,9.50
2022-12-15T10:28:00.182Z,9.40
2022-12-15T10:30:27.457Z,9.30
2022-12-15T10:32:58.527Z,9.30
2022-12-15T10:35:28.291Z,9.30
2022-12-15T10:37:57.816Z,9.40
2022-12-15T10:40:43.662Z,9.60
2022-12-15T10:43:28.106Z,9.70
2022-12-15T10:46:05.960Z,9.80
2022-12-15T10:48:33.046Z,9.90
2022-12-15T10:51:19.079Z,9.90
2022-12-15T10:53:50.530Z,9.90
2022-12-15T10:56:19.885Z,10.00
2022-12-15T10:58:51.886Z,9.90
2022-12-15T11:01:21.967Z,9.80
2022-12-15T11:03:52.132Z,9.80
2022-12-15T11:06:21.970Z,9.90
2022-12-15T11:08:49.950Z,10.00
2022-12-15T11:11:50.375Z,10.10
2022-12-15T11:14:19.137Z,10.20
2022-12-15T11:16:48.968Z,10.20
2022-12-15T11:19:36.388Z,10.20
2022-12-15T11:22:17.408Z,10.30
2022-12-15T11:24:45.708Z,10.40
2022-12-15T11:27:15.807Z,10.40
2022-12-15T11:29:57.287Z,10.40
2022-12-15T11:32:25.356Z,10.30
2022-12-15T11:34:52.444Z,10.40
2022-12-15T11:37:32.427Z,10.40
2022-12-15T11:40:21.946Z,10.50
2022-12-15T11:42:49.171Z,10.50
2022-12-15T11:45:17.620Z,10.50
2022-12-15T11:47:47.364Z,10.50
2022-12-15T11:50:25.966Z,10.50
2022-12-15T11:53:13.164Z,10.60
2022-12-15T11:55:46.934Z,10.70
2022-12-15T11:58:20.137Z,10.90
2022-12-15T12:00:51.018Z,10.70
2022-12-15T12:03:34.967Z,10.60
2022-12-15T12:06:10.896Z,10.70
2022-12-15T12:09:10.599Z,10.80
2022-12-15T12:11:41.691Z,10.90
2022-12-15T12:14:21.196Z,10.90
2022-12-15T12:17:01.952Z,10.80
2022-12-15T12:19:34.894Z,10.60
2022-12-15T12:22:07.126Z,10.50
2022-12-15T12:24:37.758Z,10.50
2022-12-15T12:27:24.971Z,10.50
2022-12-15T12:29:53.722Z,10.60
2022-12-15T12:32:21.937Z,10.60
2022-12-15T12:37:47.022Z,10.50
2022-12-15T12:40:20.123Z,10.60
2022-12-15T12:42:59.394Z,10.70
2022-12-15T12:45:28.054Z,10.80
2022-12-15T12:47:55.610Z,10.80
2022-12-15T12:50:26.184Z,10.90
2022-12-15T12:52:54.683Z,10.90
2022-12-15T12:55:30.924Z,10.90
2022-12-15T12:57:58.020Z,10.90
2022-12-15T13:00:26.692Z,10.90
2022-12-15T13:03:17.214Z,10.80
2022-12-15T13:05:44.922Z,10.70
2022-12-15T13:08:14.947Z,10.70
2022-12-15T13:10:42.574Z,10.60
2022-12-15T13:13:19.012Z,10.40
2022-12-15T13:15:49.099Z,10.30
2022-12-15T13:18:19.692Z,10.30
2022-12-15T13:20:51.350Z,10.40
2022-12-15T13:23:24.065Z,10.40
2022-12-15T13:25:55.508Z,10.30
2022-12-15T13:28:30.172Z,10.20
2022-12-15T13:31:32.810Z,10.10
2022-12-15T13:34:01.884Z,10.10
2022-12-15T13:36:38.317Z,10.10
2022-12-15T13:39:05.285Z,10.10
2022-12-15T13:41:33.401Z,10.20
2022-12-15T13:44:00.296Z,10.20
2022-12-15T13:46:28.506Z,10.30
2022-12-15T13:49:14.230Z,10.40
2022-12-15T13:51:44.488Z,10.20
2022-12-15T13:54:22.095Z,10.30
2022-12-15T13:56:52.088Z,10.20
2022-12-15T13:59:21.201Z,10.20
2022-12-15T14:01:57.922Z,10.30
2022-12-15T14:04:26.137Z,10.20
2022-12-15T14:06:54.437Z,10.00
2022-12-15T14:09:52.597Z,9.90
2022-12-15T14:12:20.248Z,9.80
2022-12-15T14:14:49.137Z,9.70
2022-12-15T14:17:16.624Z,9.70
2022-12-15T14:19:50.885Z,9.60
2022-12-15T14:22:27.664Z,9.70
2022-12-15T14:25:02.750Z,9.80
2022-12-15T14:27:30.807Z,9.80
2022-12-15T14:30:10.095Z,9.90
2022-12-15T14:32:37.135Z,9.90
2022-12-15T14:35:04.114Z,9.90
2022-12-15T14:37:31.227Z,9.90
2022-12-15T14:39:58.130Z,9.90
2022-12-15T14:42:26.158Z,9.90
2022-12-15T14:44:57.781Z,9.90
2022-12-15T14:47:34.700Z,10.00
2022-12-15T14:50:02.671Z,10.00
2022-12-15T14:52:37.011Z,10.10
2022-12-15T14:55:22.479Z,10.10
2022-12-15T14:57:49.460Z,10.10
2022-12-15T15:00:37.047Z,10.20
2022-12-15T15:03:10.853Z,10.40
2022-12-15T15:05:48.466Z,10.10
2022-12-15T15:08:16.416Z,10.10
2022-12-15T15:10:43.980Z,10.10
2022-12-15T15:13:35.976Z,10.20
2022-12-15T15:16:07.124Z,10.10
2022-12-15T15:18:34.366Z,10.10
2022-12-15T15:21:05.213Z,10.10
2022-12-15T15:23:32.238Z,10.10
2022-12-15T15:26:05.396Z,10.10
2022-12-15T15:28:39.333Z,10.10
2022-12-15T15:31:24.664Z,10.00
2022-12-15T15:33:52.011Z,10.00
2022-12-15T15:36:18.999Z,10.00
2022-12-15T15:38:46.893Z,10.00
2022-12-15T15:41:18.127Z,10.10
2022-12-15T15:43:45.205Z,10.10
2022-12-15T15:46:13.404Z,10.10
2022-12-15T15:48:44.948Z,10.10
2022-12-15T15:51:11.952Z,10.00
2022-12-15T15:53:38.920Z,10.10
2022-12-15T15:56:08.903Z,10.00
2022-12-15T15:58:36.262Z,10.00
2022-12-15T16:01:08.107Z,9.90
2022-12-15T16:03:38.455Z,9.80
2022-12-15T16:06:06.537Z,9.70
2022-12-15T16:08:34.927Z,9.70
2022-12-15T16:11:02.102Z,9.70
2022-12-15T16:13:31.494Z,9.70
2022-12-15T16:15:58.513Z,9.80
2022-12-15T16:18:25.391Z,9.80
2022-12-15T16:20:52.480Z,9.70
2022-12-15T16:23:26.983Z,9.80
2022-12-15T16:25:54.793Z,9.80
2022-12-15T16:28:29.238Z,9.80
2022-12-15T16:30:58.663Z,9.90
2022-12-15T16:33:25.859Z,9.90
2022-12-15T16:35:53.104Z,9.70
2022-12-15T16:38:27.611Z,9.60
2022-12-15T16:40:55.333Z,9.50
2022-12-15T16:43:24.145Z,9.50
2022-12-15T16:45:51.522Z,9.70
2022-12-15T16:48:18.531Z,9.70
2022-12-15T16:50:52.394Z,9.80
2022-12-15T16:53:20.574Z,9.70
2022-12-15T16:55:48.482Z,9.80
2022-12-15T16:58:16.013Z,9.80
2022-12-15T17:00:43.174Z,9.80
2022-12-15T17:03:13.803Z,9.80
2022-12-15T17:05:41.144Z,9.70
2022-12-15T17:08:09.792Z,9.70
2022-12-15T17:10:36.763Z,9.70
2022-12-15T17:13:04.691Z,9.80
2022-12-15T17:15:31.912Z,9.80
2022-12-15T17:18:01.055Z,9.80
2022-12-15T17:20:30.093Z,9.80
2022-12-15T17:23:05.102Z,9.80
2022-12-15T17:28:32.627Z,9.80
2022-12-15T17:30:59.752Z,9.90
2022-12-15T17:33:27.691Z,9.90
2022-12-15T17:35:55.487Z,9.90
2022-12-15T17:38:22.766Z,9.90
2022-12-15T17:40:50.120Z,9.80
2022-12-15T17:43:17.933Z,9.90
2022-12-15T17:45:45.068Z,9.90
2022-12-15T17:48:12.374Z,10.00
2022-12-15T17:50:39.720Z,9.90
2022-12-15T17:53:06.649Z,9.80
2022-12-15T17:55:35.441Z,9.70
2022-12-15T17:58:02.639Z,9.70
2022-12-15T18:00:30.135Z,9.60
2022-12-15T18:02:57.491Z,9.60
2022-12-15T18:05:28.499Z,9.60
2022-12-15T18:07:56.374Z,9.70
2022-12-15T18:10:26.367Z,9.70
2022-12-15T18:12:53.493Z,9.80
2022-12-15T18:15:24.669Z,9.80
2022-12-15T18:17:51.550Z,9.80
2022-12-15T18:20:19.062Z,9.90
2022-12-15T18:22:46.051Z,9.90
2022-12-15T18:25:16.856Z,9.90
2022-12-15T18:27:43.804Z,9.90
2022-12-15T18:30:15.555Z,9.90
2022-12-15T18:32:42.482Z,9.80
2022-12-15T18:35:29.747Z,9.80
2022-12-15T18:37:56.888Z,9.80
2022-12-15T18:40:26.720Z,9.80
2022-12-15T18:42:54.584Z,9.80
2022-12-15T18:45:26.879Z,9.80
2022-12-15T18:47:55.220Z,9.70
2022-12-15T18:50:23.215Z,9.70
2022-12-15T18:52:56.296Z,9.60
2022-12-15T18:55:23.440Z,9.60
2022-12-15T18:57:51.763Z,9.60
2022-12-15T19:00:26.061Z,9.50
2022-12-15T19:02:53.741Z,9.50
2022-12-15T19:05:29.826Z,9.50
2022-12-15T19:07:57.802Z,9.40
2022-12-15T19:10:25.452Z,9.40
2022-12-15T19:12:58.257Z,9.30
2022-12-15T19:15:25.772Z,9.30
2022-12-15T19:18:11.242Z,9.20
2022-12-15T19:20:56.735Z,9.30
2022-12-15T19:23:23.767Z,9.30
2022-12-15T19:25:50.794Z,9.40
2022-12-15T19:28:19.356Z,9.30
2022-12-15T19:30:46.386Z,9.40
2022-12-15T19:33:16.622Z,9.40
2022-12-15T19:35:44.970Z,9.50
2022-12-15T19:38:17.274Z,9.50
2022-12-15T19:40:44.431Z,9.50
2022-12-15T19:43:13.128Z,9.50
2022-12-15T19:45:40.430Z,9.60
2022-12-15T19:48:07.315Z,9.50
2022-12-15T19:50:36.813Z,9.50
2022-12-15T19:53:06.714Z,9.60
2022-12-15T19:55:34.607Z,9.70
2022-12-15T19:58:03.900Z,9.70
2022-12-15T20:00:30.931Z,9.80
2022-12-15T20:02:57.967Z,9.80
2022-12-15T20:05:25.101Z,9.80
2022-12-15T20:07:52.464Z,9.80
2022-12-15T20:10:24.652Z,9.70
2022-12-15T20:12:54.706Z,9.80
2022-12-15T20:15:22.791Z,9.70
2022-12-15T20:17:50.856Z,9.70
2022-12-15T20:20:18.557Z,9.70
2022-12-15T20:22:45.814Z,9.70
2022-12-15T20:25:20.610Z,9.60
2022-12-15T20:27:47.839Z,9.60
2022-12-15T20:30:20.222Z,9.60
2022-12-15T20:32:47.293Z,9.50
2022-12-15T20:35:15.527Z,9.40
2022-12-15T20:37:42.703Z,9.40
2022-12-15T20:40:21.690Z,9.40
2022-12-15T20:42:49.306Z,9.40
2022-12-15T20:45:16.618Z,9.50
2022-12-15T20:47:44.126Z,9.60
2022-12-15T20:50:21.846Z,9.50
2022-12-15T20:52:48.768Z,9.50
2022-12-15T20:55:16.183Z,9.50
2022-12-15T20:57:43.353Z,9.50
2022-12-15T21:00:13.298Z,9.40
2022-12-15T21:02:40.867Z,9.40
2022-12-15T21:05:08.574Z,9.40
2022-12-15T21:07:35.908Z,9.40
2022-12-15T21:10:02.879Z,9.40
2022-12-15T21:12:30.086Z,9.40
2022-12-15T21:14:57.609Z,9.30
2022-12-15T21:17:26.304Z,9.30
2022-12-15T21:19:53.356Z,9.30
2022-12-15T21:22:23.059Z,9.30
2022-12-15T21:24:50.606Z,9.30
2022-12-15T21:27:17.666Z,9.20
2022-12-15T21:29:50.396Z,9.20
2022-12-15T21:32:19.442Z,9.20
2022-12-15T21:34:46.411Z,9.20
2022-12-15T21:37:22.027Z,9.10
2022-12-15T21:39:49.319Z,9.20
2022-12-15T21:42:16.552Z,9.20
2022-12-15T21:44:43.536Z,9.10
2022-12-15T21:47:49.440Z,9.10
2022-12-15T21:50:17.071Z,9.00
2022-12-15T21:52:47.588Z,9.00
2022-12-15T21:55:17.970Z,9.00
2022-12-15T21:57:45.357Z,9.00
2022-12-15T22:00:13.528Z,9.10
2022-12-15T22:02:41.546Z,9.10
2022-12-15T22:05:19.127Z,9.10
2022-12-15T22:07:46.233Z,9.00
2022-12-15T22:10:13.248Z,9.00
2022-12-15T22:12:40.199Z,9.00
2022-12-15T22:15:17.685Z,9.10
2022-12-15T22:17:44.657Z,9.00
2022-12-15T22:20:18.769Z,9.00
2022-12-15T22:22:45.978Z,9.10
2022-12-15T22:25:16.937Z,9.10
2022-12-15T22:27:44.717Z,9.10
2022-12-15T22:30:15.566Z,9.00
2022-12-15T22:32:42.694Z,8.90
2022-12-15T22:35:19.353Z,8.80
2022-12-15T22:37:46.328Z,8.80
2022-12-15T22:40:13.523Z,8.80
2022-12-15T22:42:41.426Z,9.00
2022-12-15T22:45:13.202Z,9.00
2022-12-15T22:47:40.249Z,9.00
2022-12-15T22:50:07.385Z,9.10
2022-12-15T22:52:36.440Z,9.10
2022-12-15T22:55:03.337Z,9.10
2022-12-15T22:57:30.431Z,9.10
2022-12-15T23:00:00.851Z,9.00
2022-12-15T23:02:28.771Z,9.00
2022-12-15T23:04:55.690Z,8.90
2022-12-15T23:07:22.788Z,8.90
2022-12-15T23:09:49.669Z,8.80
2022-12-15T23:12:16.520Z,8.80
2022-12-15T23:15:02.100Z,8.90
2022-12-15T23:17:29.305Z,8.90
2022-12-15T23:19:56.358Z,8.90
2022-12-15T23:22:23.334Z,8.80
2022-12-15T23:24:50.329Z,8.80
2022-12-15T23:27:17.240Z,8.80
2022-12-15T23:29:44.188Z,8.80
2022-12-15T23:32:11.114Z,8.80
2022-12-15T23:34:38.002Z,8.80
2022-12-15T23:37:04.914Z,8.60
2022-12-15T23:39:31.766Z,8.50
2022-12-15T23:41:58.655Z,8.50
2022-12-15T23:44:25.583Z,8.50
2022-12-15T23:46:52.578Z,8.60
2022-12-15T23:49:19.719Z,8.50
2022-12-15T23:51:46.644Z,8.40
2022-12-15T23:54:14.051Z,8.40
2022-12-15T23:56:40.960Z,8.40
2022-12-15T23:59:07.890Z,8.40
